sensor_id;sensor_type;location;lat;lon;timestamp;P1;durP1;ratioP1;P2;durP2;ratioP2
70667;SDS011;58242;51.250;-1.118;2022-08-18T00:02:00;6.32;;;4.07;;
70667;SDS011;58242;51.250;-1.118;2022-08-18T00:04:33;6.13;;;3.72;;
70667;SDS011;58242;51.250;-1.118;2022-08-18T00:07:06;5.57;;;4.47;;
70667;SDS011;58242;51.250;-1.118;2022-08-18T00:09:33;7.35;;;4.28;;
70667;SDS011;58242;51.250;-1.118;2022-08-18T00:12:00;7.20;;;4.30;;
70667;SDS011;58242;51.250;-1.118;2022-08-18T00:14:29;7.47;;;4.38;;
70667;SDS011;58242;51.250;-1.118;2022-08-18T00:16:55;7.45;;;3.92;;
70667;SDS011;58242;51.250;-1.118;2022-08-18T00:19:21;5.13;;;3.42;;
70667;SDS011;58242;51.250;-1.118;2022-08-18T00:21:48;5.05;;;3.67;;
70667;SDS011;58242;51.250;-1.118;2022-08-18T00:24:13;4.72;;;3.78;;
70667;SDS011;58242;51.250;-1.118;2022-08-18T00:26:39;7.22;;;3.60;;
70667;SDS011;58242;51.250;-1.118;2022-08-18T00:29:04;3.97;;;3.60;;
70667;SDS011;58242;51.250;-1.118;2022-08-18T00:31:29;7.93;;;4.07;;
70667;SDS011;58242;51.250;-1.118;2022-08-18T00:33:55;7.18;;;4.07;;
70667;SDS011;58242;51.250;-1.118;2022-08-18T00:36:21;5.10;;;3.45;;
70667;SDS011;58242;51.250;-1.118;2022-08-18T00:38:46;4.22;;;3.50;;
70667;SDS011;58242;51.250;-1.118;2022-08-18T00:41:12;6.95;;;4.13;;
70667;SDS011;58242;51.250;-1.118;2022-08-18T00:43:41;5.85;;;3.85;;
70667;SDS011;58242;51.250;-1.118;2022-08-18T00:46:22;4.85;;;3.33;;
70667;SDS011;58242;51.250;-1.118;2022-08-18T00:48:50;7.30;;;4.03;;
70667;SDS011;58242;51.250;-1.118;2022-08-18T00:54:15;6.15;;;3.33;;
70667;SDS011;58242;51.250;-1.118;2022-08-18T00:56:45;6.50;;;3.72;;
70667;SDS011;58242;51.250;-1.118;2022-08-18T01:01:57;7.53;;;3.95;;
70667;SDS011;58242;51.250;-1.118;2022-08-18T01:04:34;5.30;;;3.78;;
70667;SDS011;58242;51.250;-1.118;2022-08-18T01:07:25;4.20;;;3.67;;
70667;SDS011;58242;51.250;-1.118;2022-08-18T01:09:55;8.63;;;5.05;;
70667;SDS011;58242;51.250;-1.118;2022-08-18T01:12:24;5.75;;;4.07;;
70667;SDS011;58242;51.250;-1.118;2022-08-18T01:14:50;6.93;;;3.72;;
70667;SDS011;58242;51.250;-1.118;2022-08-18T01:17:16;7.75;;;4.28;;
70667;SDS011;58242;51.250;-1.118;2022-08-18T01:20:18;4.88;;;4.32;;
70667;SDS011;58242;51.250;-1.118;2022-08-18T01:23:17;4.90;;;4.43;;
70667;SDS011;58242;51.250;-1.118;2022-08-18T01:25:44;6.53;;;4.57;;
70667;SDS011;58242;51.250;-1.118;2022-08-18T01:28:38;6.57;;;4.60;;
70667;SDS011;58242;51.250;-1.118;2022-08-18T01:31:05;8.02;;;3.85;;
70667;SDS011;58242;51.250;-1.118;2022-08-18T01:33:37;6.63;;;4.13;;
70667;SDS011;58242;51.250;-1.118;2022-08-18T01:38:36;7.57;;;4.10;;
70667;SDS011;58242;51.250;-1.118;2022-08-18T01:41:02;7.82;;;4.82;;
70667;SDS011;58242;51.250;-1.118;2022-08-18T01:43:28;5.30;;;3.70;;
70667;SDS011;58242;51.250;-1.118;2022-08-18T01:45:54;7.55;;;4.57;;
70667;SDS011;58242;51.250;-1.118;2022-08-18T01:48:21;7.13;;;4.40;;
70667;SDS011;58242;51.250;-1.118;2022-08-18T01:50:46;6.22;;;4.32;;
70667;SDS011;58242;51.250;-1.118;2022-08-18T01:53:13;6.63;;;4.20;;
70667;SDS011;58242;51.250;-1.118;2022-08-18T01:55:39;5.68;;;3.97;;
70667;SDS011;58242;51.250;-1.118;2022-08-18T01:58:08;8.95;;;4.65;;
70667;SDS011;58242;51.250;-1.118;2022-08-18T02:00:33;3.80;;;3.42;;
70667;SDS011;58242;51.250;-1.118;2022-08-18T02:03:00;4.88;;;3.60;;
70667;SDS011;58242;51.250;-1.118;2022-08-18T02:05:35;4.03;;;3.38;;
70667;SDS011;58242;51.250;-1.118;2022-08-18T02:08:03;4.50;;;3.63;;
70667;SDS011;58242;51.250;-1.118;2022-08-18T02:10:30;3.95;;;3.55;;
70667;SDS011;58242;51.250;-1.118;2022-08-18T02:12:55;4.20;;;3.72;;
70667;SDS011;58242;51.250;-1.118;2022-08-18T02:15:21;5.95;;;3.78;;
70667;SDS011;58242;51.250;-1.118;2022-08-18T02:17:46;5.22;;;3.90;;
70667;SDS011;58242;51.250;-1.118;2022-08-18T02:20:13;5.32;;;4.22;;
70667;SDS011;58242;51.250;-1.118;2022-08-18T02:22:41;9.07;;;4.75;;
70667;SDS011;58242;51.250;-1.118;2022-08-18T02:25:07;3.85;;;3.50;;
70667;SDS011;58242;51.250;-1.118;2022-08-18T02:27:33;6.75;;;4.03;;
70667;SDS011;58242;51.250;-1.118;2022-08-18T02:29:59;7.07;;;4.30;;
70667;SDS011;58242;51.250;-1.118;2022-08-18T02:32:26;5.25;;;4.10;;
70667;SDS011;58242;51.250;-1.118;2022-08-18T02:34:51;4.53;;;3.55;;
70667;SDS011;58242;51.250;-1.118;2022-08-18T02:37:16;4.93;;;4.13;;
70667;SDS011;58242;51.250;-1.118;2022-08-18T02:39:42;6.80;;;3.92;;
70667;SDS011;58242;51.250;-1.118;2022-08-18T02:42:08;4.20;;;3.80;;
70667;SDS011;58242;51.250;-1.118;2022-08-18T02:44:34;5.50;;;3.83;;
70667;SDS011;58242;51.250;-1.118;2022-08-18T02:47:00;5.80;;;3.70;;
70667;SDS011;58242;51.250;-1.118;2022-08-18T02:49:26;12.93;;;4.35;;
70667;SDS011;58242;51.250;-1.118;2022-08-18T02:51:53;7.63;;;3.97;;
70667;SDS011;58242;51.250;-1.118;2022-08-18T02:54:19;5.60;;;3.90;;
70667;SDS011;58242;51.250;-1.118;2022-08-18T02:56:47;6.30;;;4.03;;
70667;SDS011;58242;51.250;-1.118;2022-08-18T02:59:16;6.20;;;4.10;;
70667;SDS011;58242;51.250;-1.118;2022-08-18T03:01:45;6.47;;;3.85;;
70667;SDS011;58242;51.250;-1.118;2022-08-18T03:04:12;6.15;;;4.72;;
70667;SDS011;58242;51.250;-1.118;2022-08-18T03:06:40;5.93;;;4.45;;
70667;SDS011;58242;51.250;-1.118;2022-08-18T03:09:06;6.95;;;4.53;;
70667;SDS011;58242;51.250;-1.118;2022-08-18T03:11:34;8.30;;;4.15;;
70667;SDS011;58242;51.250;-1.118;2022-08-18T03:14:00;5.22;;;4.07;;
70667;SDS011;58242;51.250;-1.118;2022-08-18T03:16:25;6.75;;;4.43;;
70667;SDS011;58242;51.250;-1.118;2022-08-18T03:18:51;7.78;;;4.53;;
70667;SDS011;58242;51.250;-1.118;2022-08-18T03:21:18;7.55;;;4.88;;
70667;SDS011;58242;51.250;-1.118;2022-08-18T03:23:46;6.82;;;4.72;;
70667;SDS011;58242;51.250;-1.118;2022-08-18T03:26:13;8.40;;;4.95;;
70667;SDS011;58242;51.250;-1.118;2022-08-18T03:28:41;9.05;;;5.05;;
70667;SDS011;58242;51.250;-1.118;2022-08-18T03:31:09;7.65;;;4.75;;
70667;SDS011;58242;51.250;-1.118;2022-08-18T03:33:36;7.15;;;4.05;;
70667;SDS011;58242;51.250;-1.118;2022-08-18T03:36:05;6.60;;;4.90;;
70667;SDS011;58242;51.250;-1.118;2022-08-18T03:38:32;7.03;;;5.25;;
70667;SDS011;58242;51.250;-1.118;2022-08-18T03:40:58;5.35;;;4.45;;
70667;SDS011;58242;51.250;-1.118;2022-08-18T03:43:24;6.28;;;4.93;;
70667;SDS011;58242;51.250;-1.118;2022-08-18T03:45:49;8.85;;;4.97;;
70667;SDS011;58242;51.250;-1.118;2022-08-18T03:48:14;8.25;;;5.43;;
70667;SDS011;58242;51.250;-1.118;2022-08-18T03:50:40;7.80;;;4.80;;
70667;SDS011;58242;51.250;-1.118;2022-08-18T03:53:06;5.47;;;4.28;;
70667;SDS011;58242;51.250;-1.118;2022-08-18T03:55:31;7.97;;;4.85;;
70667;SDS011;58242;51.250;-1.118;2022-08-18T03:57:59;8.02;;;5.35;;
70667;SDS011;58242;51.250;-1.118;2022-08-18T04:00:29;6.22;;;4.78;;
70667;SDS011;58242;51.250;-1.118;2022-08-18T04:02:56;6.30;;;4.38;;
70667;SDS011;58242;51.250;-1.118;2022-08-18T04:05:23;4.82;;;4.32;;
70667;SDS011;58242;51.250;-1.118;2022-08-18T04:07:49;7.10;;;4.65;;
70667;SDS011;58242;51.250;-1.118;2022-08-18T04:10:14;5.10;;;3.92;;
70667;SDS011;58242;51.250;-1.118;2022-08-18T04:12:40;6.45;;;3.97;;
70667;SDS011;58242;51.250;-1.118;2022-08-18T04:15:06;4.35;;;3.72;;
70667;SDS011;58242;51.250;-1.118;2022-08-18T04:17:33;6.53;;;4.03;;
70667;SDS011;58242;51.250;-1.118;2022-08-18T04:19:58;7.57;;;4.75;;
70667;SDS011;58242;51.250;-1.118;2022-08-18T04:22:24;6.43;;;4.28;;
70667;SDS011;58242;51.250;-1.118;2022-08-18T04:24:50;5.53;;;4.40;;
70667;SDS011;58242;51.250;-1.118;2022-08-18T04:27:16;6.32;;;4.28;;
70667;SDS011;58242;51.250;-1.118;2022-08-18T04:29:43;7.75;;;5.13;;
70667;SDS011;58242;51.250;-1.118;2022-08-18T04:32:08;4.78;;;4.38;;
70667;SDS011;58242;51.250;-1.118;2022-08-18T04:34:34;5.75;;;4.28;;
70667;SDS011;58242;51.250;-1.118;2022-08-18T04:36:59;4.05;;;3.75;;
70667;SDS011;58242;51.250;-1.118;2022-08-18T04:39:26;6.70;;;5.28;;
70667;SDS011;58242;51.250;-1.118;2022-08-18T04:41:52;5.35;;;4.05;;
70667;SDS011;58242;51.250;-1.118;2022-08-18T04:44:18;6.65;;;3.78;;
70667;SDS011;58242;51.250;-1.118;2022-08-18T04:46:49;4.55;;;4.15;;
70667;SDS011;58242;51.250;-1.118;2022-08-18T04:49:19;5.05;;;4.43;;
70667;SDS011;58242;51.250;-1.118;2022-08-18T04:51:46;4.57;;;4.18;;
70667;SDS011;58242;51.250;-1.118;2022-08-18T04:54:34;5.25;;;4.68;;
70667;SDS011;58242;51.250;-1.118;2022-08-18T04:57:37;5.93;;;4.53;;
70667;SDS011;58242;51.250;-1.118;2022-08-18T04:59:58;5.78;;;4.72;;
70667;SDS011;58242;51.250;-1.118;2022-08-18T05:02:24;5.80;;;4.82;;
70667;SDS011;58242;51.250;-1.118;2022-08-18T05:04:49;5.43;;;4.60;;
70667;SDS011;58242;51.250;-1.118;2022-08-18T05:07:16;7.35;;;5.10;;
70667;SDS011;58242;51.250;-1.118;2022-08-18T05:09:43;8.40;;;5.25;;
70667;SDS011;58242;51.250;-1.118;2022-08-18T05:12:10;7.13;;;5.20;;
70667;SDS011;58242;51.250;-1.118;2022-08-18T05:14:38;4.65;;;4.25;;
70667;SDS011;58242;51.250;-1.118;2022-08-18T05:17:04;7.18;;;4.75;;
70667;SDS011;58242;51.250;-1.118;2022-08-18T05:19:29;5.93;;;5.35;;
70667;SDS011;58242;51.250;-1.118;2022-08-18T05:21:56;8.57;;;5.70;;
70667;SDS011;58242;51.250;-1.118;2022-08-18T05:24:23;11.90;;;5.75;;
70667;SDS011;58242;51.250;-1.118;2022-08-18T05:26:50;5.78;;;4.50;;
70667;SDS011;58242;51.250;-1.118;2022-08-18T05:29:16;5.93;;;4.50;;
70667;SDS011;58242;51.250;-1.118;2022-08-18T05:31:42;6.70;;;5.15;;
70667;SDS011;58242;51.250;-1.118;2022-08-18T05:34:08;6.85;;;5.30;;
70667;SDS011;58242;51.250;-1.118;2022-08-18T05:41:49;6.82;;;5.07;;
70667;SDS011;58242;51.250;-1.118;2022-08-18T05:44:19;5.25;;;4.75;;
70667;SDS011;58242;51.250;-1.118;2022-08-18T05:46:58;9.18;;;6.70;;
70667;SDS011;58242;51.250;-1.118;2022-08-18T05:49:35;5.78;;;5.30;;
70667;SDS011;58242;51.250;-1.118;2022-08-18T05:52:11;5.75;;;5.15;;
70667;SDS011;58242;51.250;-1.118;2022-08-18T05:54:44;6.68;;;6.03;;
70667;SDS011;58242;51.250;-1.118;2022-08-18T05:57:33;6.80;;;6.00;;
70667;SDS011;58242;51.250;-1.118;2022-08-18T06:00:06;9.10;;;5.32;;
70667;SDS011;58242;51.250;-1.118;2022-08-18T06:02:45;8.68;;;6.05;;
70667;SDS011;58242;51.250;-1.118;2022-08-18T06:05:32;8.23;;;5.70;;
70667;SDS011;58242;51.250;-1.118;2022-08-18T06:08:03;5.72;;;5.18;;
70667;SDS011;58242;51.250;-1.118;2022-08-18T06:10:33;6.28;;;5.68;;
70667;SDS011;58242;51.250;-1.118;2022-08-18T06:13:00;9.13;;;6.63;;
70667;SDS011;58242;51.250;-1.118;2022-08-18T06:26:50;6.10;;;5.50;;
70667;SDS011;58242;51.250;-1.118;2022-08-18T06:37:51;7.25;;;5.13;;
70667;SDS011;58242;51.250;-1.118;2022-08-18T06:40:37;9.40;;;6.35;;
70667;SDS011;58242;51.250;-1.118;2022-08-18T06:43:03;8.73;;;6.07;;
70667;SDS011;58242;51.250;-1.118;2022-08-18T06:45:35;8.52;;;5.20;;
70667;SDS011;58242;51.250;-1.118;2022-08-18T06:51:00;9.18;;;6.43;;
70667;SDS011;58242;51.250;-1.118;2022-08-18T06:56:31;8.15;;;6.75;;
70667;SDS011;58242;51.250;-1.118;2022-08-18T07:01:41;11.90;;;7.53;;
70667;SDS011;58242;51.250;-1.118;2022-08-18T07:04:07;10.68;;;8.50;;
70667;SDS011;58242;51.250;-1.118;2022-08-18T07:06:32;9.50;;;7.32;;
70667;SDS011;58242;51.250;-1.118;2022-08-18T07:09:18;7.35;;;6.57;;
70667;SDS011;58242;51.250;-1.118;2022-08-18T07:14:23;9.52;;;7.63;;
70667;SDS011;58242;51.250;-1.118;2022-08-18T07:16:50;9.93;;;7.78;;
70667;SDS011;58242;51.250;-1.118;2022-08-18T07:19:31;9.23;;;7.68;;
70667;SDS011;58242;51.250;-1.118;2022-08-18T07:24:33;7.40;;;6.63;;
70667;SDS011;58242;51.250;-1.118;2022-08-18T07:29:30;7.03;;;6.32;;
70667;SDS011;58242;51.250;-1.118;2022-08-18T07:31:59;8.88;;;7.90;;
70667;SDS011;58242;51.250;-1.118;2022-08-18T07:34:32;6.45;;;5.78;;
70667;SDS011;58242;51.250;-1.118;2022-08-18T07:37:08;6.43;;;5.80;;
70667;SDS011;58242;51.250;-1.118;2022-08-18T07:42:09;9.40;;;7.28;;
70667;SDS011;58242;51.250;-1.118;2022-08-18T07:44:44;10.75;;;7.95;;
70667;SDS011;58242;51.250;-1.118;2022-08-18T07:47:20;10.25;;;7.32;;
70667;SDS011;58242;51.250;-1.118;2022-08-18T07:49:50;12.00;;;8.05;;
70667;SDS011;58242;51.250;-1.118;2022-08-18T07:52:28;9.60;;;8.23;;
70667;SDS011;58242;51.250;-1.118;2022-08-18T07:55:10;10.60;;;7.32;;
70667;SDS011;58242;51.250;-1.118;2022-08-18T08:13:39;7.80;;;7.10;;
70667;SDS011;58242;51.250;-1.118;2022-08-18T08:22:07;10.63;;;9.65;;
70667;SDS011;58242;51.250;-1.118;2022-08-18T08:32:33;11.95;;;10.45;;
70667;SDS011;58242;51.250;-1.118;2022-08-18T08:35:09;9.75;;;8.68;;
70667;SDS011;58242;51.250;-1.118;2022-08-18T08:40:06;10.63;;;9.20;;
70667;SDS011;58242;51.250;-1.118;2022-08-18T08:42:42;10.60;;;9.60;;
70667;SDS011;58242;51.250;-1.118;2022-08-18T08:45:15;9.68;;;8.75;;
70667;SDS011;58242;51.250;-1.118;2022-08-18T08:47:53;9.95;;;8.98;;
70667;SDS011;58242;51.250;-1.118;2022-08-18T08:50:33;8.05;;;7.25;;
70667;SDS011;58242;51.250;-1.118;2022-08-18T08:55:55;9.85;;;8.93;;
70667;SDS011;58242;51.250;-1.118;2022-08-18T08:58:39;11.57;;;10.43;;
70667;SDS011;58242;51.250;-1.118;2022-08-18T09:01:09;9.65;;;8.75;;
70667;SDS011;58242;51.250;-1.118;2022-08-18T09:06:57;10.90;;;8.45;;
70667;SDS011;58242;51.250;-1.118;2022-08-18T09:15:22;12.13;;;10.23;;
70667;SDS011;58242;51.250;-1.118;2022-08-18T09:21:47;10.40;;;9.38;;
70667;SDS011;58242;51.250;-1.118;2022-08-18T09:23:46;9.63;;;8.15;;
70667;SDS011;58242;51.250;-1.118;2022-08-18T09:29:12;10.07;;;9.18;;
70667;SDS011;58242;51.250;-1.118;2022-08-18T09:31:41;9.55;;;8.73;;
70667;SDS011;58242;51.250;-1.118;2022-08-18T09:40:08;9.77;;;8.88;;
70667;SDS011;58242;51.250;-1.118;2022-08-18T09:42:55;9.65;;;8.75;;
70667;SDS011;58242;51.250;-1.118;2022-08-18T09:50:59;10.32;;;9.32;;
70667;SDS011;58242;51.250;-1.118;2022-08-18T09:56:15;9.23;;;8.45;;
70667;SDS011;58242;51.250;-1.118;2022-08-18T09:58:50;9.30;;;8.48;;
70667;SDS011;58242;51.250;-1.118;2022-08-18T10:01:37;9.10;;;8.23;;
70667;SDS011;58242;51.250;-1.118;2022-08-18T10:06:38;9.45;;;8.38;;
70667;SDS011;58242;51.250;-1.118;2022-08-18T10:17:45;7.20;;;6.50;;
70667;SDS011;58242;51.250;-1.118;2022-08-18T10:20:22;6.70;;;6.10;;
70667;SDS011;58242;51.250;-1.118;2022-08-18T10:22:57;7.25;;;6.65;;
70667;SDS011;58242;51.250;-1.118;2022-08-18T10:25:33;6.70;;;6.22;;
70667;SDS011;58242;51.250;-1.118;2022-08-18T10:28:03;8.85;;;7.22;;
70667;SDS011;58242;51.250;-1.118;2022-08-18T10:30:43;5.95;;;5.45;;
70667;SDS011;58242;51.250;-1.118;2022-08-18T10:33:11;6.70;;;6.10;;
70667;SDS011;58242;51.250;-1.118;2022-08-18T10:35:57;9.38;;;8.48;;
70667;SDS011;58242;51.250;-1.118;2022-08-18T10:38:25;7.82;;;7.10;;
70667;SDS011;58242;51.250;-1.118;2022-08-18T10:41:02;8.77;;;6.75;;
70667;SDS011;58242;51.250;-1.118;2022-08-18T10:43:42;7.45;;;6.78;;
70667;SDS011;58242;51.250;-1.118;2022-08-18T10:46:14;6.85;;;6.22;;
70667;SDS011;58242;51.250;-1.118;2022-08-18T10:48:42;8.68;;;7.97;;
70667;SDS011;58242;51.250;-1.118;2022-08-18T10:51:15;8.88;;;7.95;;
70667;SDS011;58242;51.250;-1.118;2022-08-18T10:56:50;7.60;;;6.72;;
70667;SDS011;58242;51.250;-1.118;2022-08-18T11:05:11;8.07;;;6.13;;
70667;SDS011;58242;51.250;-1.118;2022-08-18T11:07:40;8.70;;;7.32;;
70667;SDS011;58242;51.250;-1.118;2022-08-18T11:10:23;8.43;;;6.78;;
70667;SDS011;58242;51.250;-1.118;2022-08-18T11:18:24;8.95;;;6.20;;
70667;SDS011;58242;51.250;-1.118;2022-08-18T11:26:52;5.65;;;4.63;;
70667;SDS011;58242;51.250;-1.118;2022-08-18T11:32:07;7.03;;;5.78;;
70667;SDS011;58242;51.250;-1.118;2022-08-18T11:40:06;5.82;;;4.88;;
70667;SDS011;58242;51.250;-1.118;2022-08-18T11:42:54;6.15;;;5.55;;
70667;SDS011;58242;51.250;-1.118;2022-08-18T11:51:30;7.78;;;5.68;;
